sensor_id;sensor_type;location;lat;lon;timestamp;temperature;humidity
2024;DHT22;1016;48.770;9.154;2023-06-22T00:01:09;23.00;99.90
2024;DHT22;1016;48.770;9.154;2023-06-22T00:03:35;23.00;99.90
2024;DHT22;1016;48.770;9.154;2023-06-22T00:06:00;23.00;99.90
2024;DHT22;1016;48.770;9.154;2023-06-22T00:08:26;23.00;99.90
2024;DHT22;1016;48.770;9.154;2023-06-22T00:10:51;23.00;99.90
2024;DHT22;1016;48.770;9.154;2023-06-22T00:13:17;22.90;99.90
2024;DHT22;1016;48.770;9.154;2023-06-22T00:15:43;22.90;99.90
2024;DHT22;1016;48.770;9.154;2023-06-22T00:18:10;22.90;99.90
2024;DHT22;1016;48.770;9.154;2023-06-22T00:20:36;22.90;99.90
2024;DHT22;1016;48.770;9.154;2023-06-22T00:23:06;22.90;99.90
2024;DHT22;1016;48.770;9.154;2023-06-22T00:25:40;22.90;99.90
2024;DHT22;1016;48.770;9.154;2023-06-22T00:28:06;22.90;99.90
2024;DHT22;1016;48.770;9.154;2023-06-22T00:30:33;22.90;99.90
2024;DHT22;1016;48.770;9.154;2023-06-22T00:32:59;22.80;99.90
2024;DHT22;1016;48.770;9.154;2023-06-22T00:35:25;22.80;99.90
2024;DHT22;1016;48.770;9.154;2023-06-22T00:37:58;22.90;99.90
2024;DHT22;1016;48.770;9.154;2023-06-22T00:40:32;23.00;99.90
2024;DHT22;1016;48.770;9.154;2023-06-22T00:42:58;23.00;99.90
2024;DHT22;1016;48.770;9.154;2023-06-22T00:45:24;23.10;99.90
2024;DHT22;1016;48.770;9.154;2023-06-22T00:47:57;23.10;99.90
2024;DHT22;1016;48.770;9.154;2023-06-22T00:50:26;23.00;99.90
2024;DHT22;1016;48.770;9.154;2023-06-22T00:52:54;23.00;99.90
2024;DHT22;1016;48.770;9.154;2023-06-22T00:55:22;23.00;99.90
2024;DHT22;1016;48.770;9.154;2023-06-22T00:57:48;23.10;99.90
2024;DHT22;1016;48.770;9.154;2023-06-22T01:00:15;23.00;99.90
2024;DHT22;1016;48.770;9.154;2023-06-22T01:02:43;23.00;99.90
2024;DHT22;1016;48.770;9.154;2023-06-22T01:05:15;23.00;99.90
2024;DHT22;1016;48.770;9.154;2023-06-22T01:07:56;23.10;99.90
2024;DHT22;1016;48.770;9.154;2023-06-22T01:14:11;23.00;99.90
2024;DHT22;1016;48.770;9.154;2023-06-22T01:16:40;23.00;99.90
2024;DHT22;1016;48.770;9.154;2023-06-22T01:19:45;23.00;99.90
2024;DHT22;1016;48.770;9.154;2023-06-22T01:22:14;22.90;99.90
2024;DHT22;1016;48.770;9.154;2023-06-22T01:24:54;22.90;99.90
2024;DHT22;1016;48.770;9.154;2023-06-22T01:30:26;22.90;99.90
2024;DHT22;1016;48.770;9.154;2023-06-22T01:32:54;22.90;99.90
2024;DHT22;1016;48.770;9.154;2023-06-22T01:35:20;22.90;99.90
2024;DHT22;1016;48.770;9.154;2023-06-22T01:37:46;22.80;99.90
2024;DHT22;1016;48.770;9.154;2023-06-22T01:40:13;22.80;99.90
2024;DHT22;1016;48.770;9.154;2023-06-22T01:42:40;22.80;99.90
2024;DHT22;1016;48.770;9.154;2023-06-22T01:45:07;22.80;99.90
2024;DHT22;1016;48.770;9.154;2023-06-22T01:47:33;22.70;99.90
2024;DHT22;1016;48.770;9.154;2023-06-22T01:49:59;22.70;99.90
2024;DHT22;1016;48.770;9.154;2023-06-22T01:52:25;22.70;99.90
2024;DHT22;1016;48.770;9.154;2023-06-22T01:54:50;22.70;99.90
2024;DHT22;1016;48.770;9.154;2023-06-22T01:57:16;22.60;99.90
2024;DHT22;1016;48.770;9.154;2023-06-22T02:00:02;22.60;99.90
2024;DHT22;1016;48.770;9.154;2023-06-22T02:02:59;22.60;99.90
2024;DHT22;1016;48.770;9.154;2023-06-22T02:05:31;22.60;99.90
2024;DHT22;1016;48.770;9.154;2023-06-22T02:08:06;22.60;99.90
2024;DHT22;1016;48.770;9.154;2023-06-22T02:10:34;22.60;99.90
2024;DHT22;1016;48.770;9.154;2023-06-22T02:13:01;22.50;99.90
2024;DHT22;1016;48.770;9.154;2023-06-22T02:15:28;22.50;99.90
2024;DHT22;1016;48.770;9.154;2023-06-22T02:17:54;22.50;99.90
2024;DHT22;1016;48.770;9.154;2023-06-22T02:20:19;22.50;99.90
2024;DHT22;1016;48.770;9.154;2023-06-22T02:22:45;22.50;99.90
2024;DHT22;1016;48.770;9.154;2023-06-22T02:25:11;22.50;99.90
2024;DHT22;1016;48.770;9.154;2023-06-22T02:27:36;22.50;99.90
2024;DHT22;1016;48.770;9.154;2023-06-22T02:30:07;22.50;99.90
2024;DHT22;1016;48.770;9.154;2023-06-22T02:32:32;22.50;99.90
2024;DHT22;1016;48.770;9.154;2023-06-22T02:34:59;22.40;99.90
2024;DHT22;1016;48.770;9.154;2023-06-22T02:37:25;22.40;99.90
2024;DHT22;1016;48.770;9.154;2023-06-22T02:39:50;22.40;99.90
2024;DHT22;1016;48.770;9.154;2023-06-22T02:42:16;22.40;99.90
2024;DHT22;1016;48.770;9.154;2023-06-22T02:44:45;22.40;99.90
2024;DHT22;1016;48.770;9.154;2023-06-22T02:47:11;22.40;99.90
2024;DHT22;1016;48.770;9.154;2023-06-22T02:49:36;22.40;99.90
2024;DHT22;1016;48.770;9.154;2023-06-22T02:52:02;22.50;99.90
2024;DHT22;1016;48.770;9.154;2023-06-22T02:54:28;22.40;99.90
2024;DHT22;1016;48.770;9.154;2023-06-22T02:56:53;22.40;99.90
2024;DHT22;1016;48.770;9.154;2023-06-22T03:01:49;22.50;99.90
2024;DHT22;1016;48.770;9.154;2023-06-22T03:04:15;22.20;99.90
2024;DHT22;1016;48.770;9.154;2023-06-22T03:06:41;22.20;99.90
2024;DHT22;1016;48.770;9.154;2023-06-22T03:09:06;22.20;99.90
2024;DHT22;1016;48.770;9.154;2023-06-22T03:11:33;22.20;99.90
2024;DHT22;1016;48.770;9.154;2023-06-22T03:14:00;22.20;99.90
2024;DHT22;1016;48.770;9.154;2023-06-22T03:16:26;22.10;99.90
2024;DHT22;1016;48.770;9.154;2023-06-22T03:18:51;22.10;99.90
2024;DHT22;1016;48.770;9.154;2023-06-22T03:21:19;22.10;99.90
2024;DHT22;1016;48.770;9.154;2023-06-22T03:23:44;22.20;99.90
2024;DHT22;1016;48.770;9.154;2023-06-22T03:26:10;22.10;99.90
2024;DHT22;1016;48.770;9.154;2023-06-22T03:28:36;22.10;99.90
2024;DHT22;1016;48.770;9.154;2023-06-22T03:31:03;22.10;99.90
2024;DHT22;1016;48.770;9.154;2023-06-22T03:33:29;22.10;99.90
2024;DHT22;1016;48.770;9.154;2023-06-22T03:35:55;22.10;99.90
2024;DHT22;1016;48.770;9.154;2023-06-22T03:38:20;22.10;99.90
2024;DHT22;1016;48.770;9.154;2023-06-22T03:40:46;22.10;99.90
2024;DHT22;1016;48.770;9.154;2023-06-22T03:43:11;22.10;99.90
2024;DHT22;1016;48.770;9.154;2023-06-22T03:45:37;22.10;99.90
2024;DHT22;1016;48.770;9.154;2023-06-22T03:48:03;22.10;99.90
2024;DHT22;1016;48.770;9.154;2023-06-22T03:50:28;22.10;99.90
2024;DHT22;1016;48.770;9.154;2023-06-22T03:52:55;22.00;99.90
2024;DHT22;1016;48.770;9.154;2023-06-22T03:55:20;22.10;99.90
2024;DHT22;1016;48.770;9.154;2023-06-22T03:57:46;22.10;99.90
2024;DHT22;1016;48.770;9.154;2023-06-22T04:00:12;22.10;99.90
2024;DHT22;1016;48.770;9.154;2023-06-22T04:02:38;22.10;99.90
2024;DHT22;1016;48.770;9.154;2023-06-22T04:05:04;22.10;99.90
2024;DHT22;1016;48.770;9.154;2023-06-22T04:07:29;22.10;99.90
2024;DHT22;1016;48.770;9.154;2023-06-22T04:09:55;22.20;99.90
2024;DHT22;1016;48.770;9.154;2023-06-22T04:12:20;22.20;99.90
2024;DHT22;1016;48.770;9.154;2023-06-22T04:14:46;22.10;99.90
2024;DHT22;1016;48.770;9.154;2023-06-22T04:17:11;22.20;99.90
2024;DHT22;1016;48.770;9.154;2023-06-22T04:19:39;22.20;99.90
2024;DHT22;1016;48.770;9.154;2023-06-22T04:22:05;22.20;99.90
2024;DHT22;1016;48.770;9.154;2023-06-22T04:24:32;22.20;99.90
2024;DHT22;1016;48.770;9.154;2023-06-22T04:26:58;22.20;99.90
2024;DHT22;1016;48.770;9.154;2023-06-22T04:29:31;22.30;99.90
2024;DHT22;1016;48.770;9.154;2023-06-22T04:31:57;22.30;99.90
2024;DHT22;1016;48.770;9.154;2023-06-22T04:34:24;22.30;99.90
2024;DHT22;1016;48.770;9.154;2023-06-22T04:36:52;22.30;99.90
2024;DHT22;1016;48.770;9.154;2023-06-22T04:39:17;22.30;99.90
2024;DHT22;1016;48.770;9.154;2023-06-22T04:41:44;22.40;99.90
2024;DHT22;1016;48.770;9.154;2023-06-22T04:44:15;22.40;99.90
2024;DHT22;1016;48.770;9.154;2023-06-22T04:46:59;22.40;99.90
2024;DHT22;1016;48.770;9.154;2023-06-22T04:49:34;22.40;99.90
2024;DHT22;1016;48.770;9.154;2023-06-22T04:52:06;22.40;99.90
2024;DHT22;1016;48.770;9.154;2023-06-22T04:54:33;22.40;99.90
2024;DHT22;1016;48.770;9.154;2023-06-22T04:57:00;22.40;99.90
2024;DHT22;1016;48.770;9.154;2023-06-22T04:59:27;22.40;99.90
2024;DHT22;1016;48.770;9.154;2023-06-22T05:02:00;22.50;99.90
2024;DHT22;1016;48.770;9.154;2023-06-22T05:04:27;22.40;99.90
2024;DHT22;1016;48.770;9.154;2023-06-22T05:07:01;22.50;99.90
2024;DHT22;1016;48.770;9.154;2023-06-22T05:09:27;22.60;99.90
2024;DHT22;1016;48.770;9.154;2023-06-22T05:11:53;22.60;99.90
2024;DHT22;1016;48.770;9.154;2023-06-22T05:14:18;22.60;99.90
2024;DHT22;1016;48.770;9.154;2023-06-22T05:16:45;22.60;99.90
2024;DHT22;1016;48.770;9.154;2023-06-22T05:19:11;22.60;99.90
2024;DHT22;1016;48.770;9.154;2023-06-22T05:21:37;22.70;99.90
2024;DHT22;1016;48.770;9.154;2023-06-22T05:24:03;22.70;99.90
2024;DHT22;1016;48.770;9.154;2023-06-22T05:26:29;22.80;99.90
2024;DHT22;1016;48.770;9.154;2023-06-22T05:28:55;22.80;99.90
2024;DHT22;1016;48.770;9.154;2023-06-22T05:31:21;22.70;99.90
2024;DHT22;1016;48.770;9.154;2023-06-22T05:33:47;22.90;99.90
2024;DHT22;1016;48.770;9.154;2023-06-22T05:36:13;22.90;99.90
2024;DHT22;1016;48.770;9.154;2023-06-22T05:38:40;22.90;99.90
2024;DHT22;1016;48.770;9.154;2023-06-22T05:41:06;22.90;99.90
2024;DHT22;1016;48.770;9.154;2023-06-22T05:43:32;22.90;99.90
2024;DHT22;1016;48.770;9.154;2023-06-22T05:45:58;23.00;99.90
2024;DHT22;1016;48.770;9.154;2023-06-22T05:48:24;23.00;99.90
2024;DHT22;1016;48.770;9.154;2023-06-22T05:50:50;23.00;99.90
2024;DHT22;1016;48.770;9.154;2023-06-22T05:53:16;23.00;99.90
2024;DHT22;1016;48.770;9.154;2023-06-22T05:55:41;23.10;99.90
2024;DHT22;1016;48.770;9.154;2023-06-22T05:58:08;23.10;99.90
2024;DHT22;1016;48.770;9.154;2023-06-22T06:00:34;23.20;99.90
2024;DHT22;1016;48.770;9.154;2023-06-22T06:02:59;23.30;99.90
2024;DHT22;1016;48.770;9.154;2023-06-22T06:05:30;23.40;99.90
2024;DHT22;1016;48.770;9.154;2023-06-22T06:07:55;23.30;99.90
2024;DHT22;1016;48.770;9.154;2023-06-22T06:10:21;23.30;99.90
2024;DHT22;1016;48.770;9.154;2023-06-22T06:12:47;23.30;99.90
2024;DHT22;1016;48.770;9.154;2023-06-22T06:15:12;23.30;99.90
2024;DHT22;1016;48.770;9.154;2023-06-22T06:17:51;23.50;99.90
2024;DHT22;1016;48.770;9.154;2023-06-22T06:20:20;23.50;99.90
2024;DHT22;1016;48.770;9.154;2023-06-22T06:22:46;23.50;99.90
2024;DHT22;1016;48.770;9.154;2023-06-22T06:25:12;23.50;99.90
2024;DHT22;1016;48.770;9.154;2023-06-22T06:27:45;23.60;99.90
2024;DHT22;1016;48.770;9.154;2023-06-22T06:30:11;23.70;99.90
2024;DHT22;1016;48.770;9.154;2023-06-22T06:32:38;23.80;99.90
2024;DHT22;1016;48.770;9.154;2023-06-22T06:35:09;23.90;99.90
2024;DHT22;1016;48.770;9.154;2023-06-22T06:37:42;24.00;99.90
2024;DHT22;1016;48.770;9.154;2023-06-22T06:40:12;24.10;99.90
2024;DHT22;1016;48.770;9.154;2023-06-22T06:42:39;24.20;99.90
2024;DHT22;1016;48.770;9.154;2023-06-22T06:45:08;24.40;99.90
2024;DHT22;1016;48.770;9.154;2023-06-22T06:47:33;24.50;99.90
2024;DHT22;1016;48.770;9.154;2023-06-22T06:49:59;24.60;99.90
2024;DHT22;1016;48.770;9.154;2023-06-22T06:52:25;24.60;99.90
2024;DHT22;1016;48.770;9.154;2023-06-22T06:54:50;24.70;99.90
2024;DHT22;1016;48.770;9.154;2023-06-22T06:57:18;24.80;99.90
2024;DHT22;1016;48.770;9.154;2023-06-22T06:59:43;25.00;99.90
2024;DHT22;1016;48.770;9.154;2023-06-22T07:02:09;24.90;99.90
2024;DHT22;1016;48.770;9.154;2023-06-22T07:04:34;25.00;99.90
2024;DHT22;1016;48.770;9.154;2023-06-22T07:07:01;25.00;99.90
2024;DHT22;1016;48.770;9.154;2023-06-22T07:09:27;25.10;99.90
2024;DHT22;1016;48.770;9.154;2023-06-22T07:11:52;25.10;99.90
2024;DHT22;1016;48.770;9.154;2023-06-22T07:14:18;25.20;99.90
2024;DHT22;1016;48.770;9.154;2023-06-22T07:16:43;25.30;99.90
2024;DHT22;1016;48.770;9.154;2023-06-22T07:19:11;25.30;99.90
2024;DHT22;1016;48.770;9.154;2023-06-22T07:21:40;25.40;99.90
2024;DHT22;1016;48.770;9.154;2023-06-22T07:24:07;25.50;99.90
2024;DHT22;1016;48.770;9.154;2023-06-22T07:26:33;25.50;99.90
2024;DHT22;1016;48.770;9.154;2023-06-22T07:28:59;25.60;99.90
2024;DHT22;1016;48.770;9.154;2023-06-22T07:31:25;25.70;99.90
2024;DHT22;1016;48.770;9.154;2023-06-22T07:33:50;25.70;99.90
2024;DHT22;1016;48.770;9.154;2023-06-22T07:36:17;25.70;99.90
2024;DHT22;1016;48.770;9.154;2023-06-22T07:38:43;25.80;99.90
2024;DHT22;1016;48.770;9.154;2023-06-22T07:41:08;25.80;99.90
2024;DHT22;1016;48.770;9.154;2023-06-22T07:43:34;25.90;99.90
2024;DHT22;1016;48.770;9.154;2023-06-22T07:46:02;25.90;99.90
2024;DHT22;1016;48.770;9.154;2023-06-22T07:48:28;26.10;99.90
2024;DHT22;1016;48.770;9.154;2023-06-22T07:50:54;26.00;99.90
2024;DHT22;1016;48.770;9.154;2023-06-22T07:53:20;26.10;99.90
2024;DHT22;1016;48.770;9.154;2023-06-22T07:55:47;26.10;99.90
2024;DHT22;1016;48.770;9.154;2023-06-22T07:58:12;26.20;99.90
2024;DHT22;1016;48.770;9.154;2023-06-22T08:00:38;26.20;99.90
2024;DHT22;1016;48.770;9.154;2023-06-22T08:03:03;26.30;99.90
2024;DHT22;1016;48.770;9.154;2023-06-22T08:05:30;26.30;99.90
2024;DHT22;1016;48.770;9.154;2023-06-22T08:07:56;26.30;99.90
2024;DHT22;1016;48.770;9.154;2023-06-22T08:10:21;26.40;99.90
2024;DHT22;1016;48.770;9.154;2023-06-22T08:12:47;26.40;99.90
2024;DHT22;1016;48.770;9.154;2023-06-22T08:15:13;26.50;99.90
2024;DHT22;1016;48.770;9.154;2023-06-22T08:17:39;26.50;99.90
2024;DHT22;1016;48.770;9.154;2023-06-22T08:20:05;26.60;99.90
2024;DHT22;1016;48.770;9.154;2023-06-22T08:22:38;26.60;99.90
2024;DHT22;1016;48.770;9.154;2023-06-22T08:25:04;26.60;99.90
2024;DHT22;1016;48.770;9.154;2023-06-22T08:27:30;26.70;99.90
2024;DHT22;1016;48.770;9.154;2023-06-22T08:29:59;26.70;99.90
2024;DHT22;1016;48.770;9.154;2023-06-22T08:32:26;26.80;99.90
2024;DHT22;1016;48.770;9.154;2023-06-22T08:34:53;26.80;99.90
2024;DHT22;1016;48.770;9.154;2023-06-22T08:37:19;26.80;99.90
2024;DHT22;1016;48.770;9.154;2023-06-22T08:39:45;26.80;99.90
2024;DHT22;1016;48.770;9.154;2023-06-22T08:42:12;26.90;99.90
2024;DHT22;1016;48.770;9.154;2023-06-22T08:44:37;26.90;99.90
2024;DHT22;1016;48.770;9.154;2023-06-22T08:47:03;27.00;99.90
2024;DHT22;1016;48.770;9.154;2023-06-22T08:49:29;27.00;99.90
2024;DHT22;1016;48.770;9.154;2023-06-22T08:51:54;27.10;99.90
2024;DHT22;1016;48.770;9.154;2023-06-22T08:54:22;27.20;99.90
2024;DHT22;1016;48.770;9.154;2023-06-22T08:56:48;27.20;99.90
2024;DHT22;1016;48.770;9.154;2023-06-22T08:59:13;27.30;99.90
2024;DHT22;1016;48.770;9.154;2023-06-22T09:01:39;27.40;99.90
2024;DHT22;1016;48.770;9.154;2023-06-22T09:04:04;27.40;99.90
2024;DHT22;1016;48.770;9.154;2023-06-22T09:06:31;27.50;99.90
2024;DHT22;1016;48.770;9.154;2023-06-22T09:08:57;27.70;99.90
2024;DHT22;1016;48.770;9.154;2023-06-22T09:11:25;27.60;99.90
2024;DHT22;1016;48.770;9.154;2023-06-22T09:13:50;27.60;99.90
2024;DHT22;1016;48.770;9.154;2023-06-22T09:16:17;27.60;99.90
2024;DHT22;1016;48.770;9.154;2023-06-22T09:18:46;27.60;99.90
2024;DHT22;1016;48.770;9.154;2023-06-22T09:21:12;27.70;99.90
2024;DHT22;1016;48.770;9.154;2023-06-22T09:23:37;27.70;99.90
2024;DHT22;1016;48.770;9.154;2023-06-22T09:26:03;27.70;99.90
2024;DHT22;1016;48.770;9.154;2023-06-22T09:28:29;27.80;99.90
2024;DHT22;1016;48.770;9.154;2023-06-22T09:30:54;28.00;99.90
2024;DHT22;1016;48.770;9.154;2023-06-22T09:33:23;27.80;99.90
2024;DHT22;1016;48.770;9.154;2023-06-22T09:35:49;27.80;99.90
2024;DHT22;1016;48.770;9.154;2023-06-22T09:38:16;27.90;99.90
2024;DHT22;1016;48.770;9.154;2023-06-22T09:40:42;27.90;99.90
2024;DHT22;1016;48.770;9.154;2023-06-22T09:43:07;27.90;99.90
2024;DHT22;1016;48.770;9.154;2023-06-22T09:45:33;28.00;99.90
2024;DHT22;1016;48.770;9.154;2023-06-22T09:47:58;28.00;99.90
2024;DHT22;1016;48.770;9.154;2023-06-22T09:50:24;28.00;99.90
2024;DHT22;1016;48.770;9.154;2023-06-22T09:52:49;28.10;99.90
2024;DHT22;1016;48.770;9.154;2023-06-22T09:55:20;28.10;99.90
2024;DHT22;1016;48.770;9.154;2023-06-22T09:57:46;28.20;99.90
2024;DHT22;1016;48.770;9.154;2023-06-22T10:00:12;28.20;99.90
2024;DHT22;1016;48.770;9.154;2023-06-22T10:02:44;28.20;99.90
2024;DHT22;1016;48.770;9.154;2023-06-22T10:05:10;28.20;99.90
2024;DHT22;1016;48.770;9.154;2023-06-22T10:07:35;28.10;99.90
2024;DHT22;1016;48.770;9.154;2023-06-22T10:10:06;28.00;99.90
2024;DHT22;1016;48.770;9.154;2023-06-22T10:12:31;28.00;99.90
2024;DHT22;1016;48.770;9.154;2023-06-22T10:14:57;27.90;99.90
2024;DHT22;1016;48.770;9.154;2023-06-22T10:17:22;27.90;99.90
2024;DHT22;1016;48.770;9.154;2023-06-22T10:19:48;27.90;99.90
2024;DHT22;1016;48.770;9.154;2023-06-22T10:22:14;27.80;99.90
2024;DHT22;1016;48.770;9.154;2023-06-22T10:24:39;27.80;99.90
2024;DHT22;1016;48.770;9.154;2023-06-22T10:27:10;27.80;99.90
2024;DHT22;1016;48.770;9.154;2023-06-22T10:29:36;27.90;99.90
2024;DHT22;1016;48.770;9.154;2023-06-22T10:32:01;27.90;99.90
2024;DHT22;1016;48.770;9.154;2023-06-22T10:34:27;28.00;99.90
2024;DHT22;1016;48.770;9.154;2023-06-22T10:36:53;28.00;99.90
2024;DHT22;1016;48.770;9.154;2023-06-22T10:39:18;28.00;99.90
2024;DHT22;1016;48.770;9.154;2023-06-22T10:41:44;28.00;99.90
2024;DHT22;1016;48.770;9.154;2023-06-22T10:44:09;28.10;99.90
2024;DHT22;1016;48.770;9.154;2023-06-22T10:46:36;28.10;99.90
2024;DHT22;1016;48.770;9.154;2023-06-22T10:49:01;28.10;99.90
2024;DHT22;1016;48.770;9.154;2023-06-22T10:51:27;28.10;99.90
2024;DHT22;1016;48.770;9.154;2023-06-22T10:53:53;28.10;99.90
2024;DHT22;1016;48.770;9.154;2023-06-22T10:56:19;28.10;99.90
2024;DHT22;1016;48.770;9.154;2023-06-22T10:58:45;28.10;99.90
2024;DHT22;1016;48.770;9.154;2023-06-22T11:01:11;28.10;99.90
2024;DHT22;1016;48.770;9.154;2023-06-22T11:03:37;28.10;99.90
2024;DHT22;1016;48.770;9.154;2023-06-22T11:06:02;28.00;99.90
2024;DHT22;1016;48.770;9.154;2023-06-22T11:08:28;28.10;99.90
2024;DHT22;1016;48.770;9.154;2023-06-22T11:10:53;28.10;99.90
2024;DHT22;1016;48.770;9.154;2023-06-22T11:13:19;28.10;99.90
2024;DHT22;1016;48.770;9.154;2023-06-22T11:15:44;28.20;99.90
2024;DHT22;1016;48.770;9.154;2023-06-22T11:18:10;28.20;99.90
2024;DHT22;1016;48.770;9.154;2023-06-22T11:20:35;28.20;99.90
2024;DHT22;1016;48.770;9.154;2023-06-22T11:23:05;28.20;99.90
2024;DHT22;1016;48.770;9.154;2023-06-22T11:25:34;28.30;99.90
2024;DHT22;1016;48.770;9.154;2023-06-22T11:28:03;28.30;99.90
2024;DHT22;1016;48.770;9.154;2023-06-22T11:30:30;28.30;99.90
2024;DHT22;1016;48.770;9.154;2023-06-22T11:32:59;28.30;99.90
2024;DHT22;1016;48.770;9.154;2023-06-22T11:35:25;28.20;99.90
2024;DHT22;1016;48.770;9.154;2023-06-22T11:37:51;28.20;99.90
2024;DHT22;1016;48.770;9.154;2023-06-22T11:40:16;28.30;99.90
2024;DHT22;1016;48.770;9.154;2023-06-22T11:42:43;28.30;99.90
2024;DHT22;1016;48.770;9.154;2023-06-22T11:45:08;28.30;99.90
2024;DHT22;1016;48.770;9.154;2023-06-22T11:47:34;28.30;99.90
2024;DHT22;1016;48.770;9.154;2023-06-22T11:49:59;28.30;99.90
2024;DHT22;1016;48.770;9.154;2023-06-22T11:52:25;28.30;99.90
2024;DHT22;1016;48.770;9.154;2023-06-22T11:54:52;28.30;99.90
2024;DHT22;1016;48.770;9.154;2023-06-22T11:57:18;28.30;99.90
2024;DHT22;1016;48.770;9.154;2023-06-22T11:59:43;28.30;99.90
2024;DHT22;1016;48.770;9.154;2023-06-22T12:02:09;28.20;99.90
2024;DHT22;1016;48.770;9.154;2023-06-22T12:04:35;28.20;99.90
2024;DHT22;1016;48.770;9.154;2023-06-22T12:07:00;28.20;99.90
2024;DHT22;1016;48.770;9.154;2023-06-22T12:09:26;28.30;99.90
2024;DHT22;1016;48.770;9.154;2023-06-22T12:11:51;28.10;99.90
2024;DHT22;1016;48.770;9.154;2023-06-22T12:14:17;28.20;99.90
2024;DHT22;1016;48.770;9.154;2023-06-22T12:16:42;28.30;99.90
2024;DHT22;1016;48.770;9.154;2023-06-22T12:19:09;28.40;99.90
2024;DHT22;1016;48.770;9.154;2023-06-22T12:21:35;28.50;99.90
2024;DHT22;1016;48.770;9.154;2023-06-22T12:24:00;28.60;99.90
2024;DHT22;1016;48.770;9.154;2023-06-22T12:26:26;28.60;99.90
2024;DHT22;1016;48.770;9.154;2023-06-22T12:28:51;28.70;99.90
2024;DHT22;1016;48.770;9.154;2023-06-22T12:31:17;28.70;99.90
2024;DHT22;1016;48.770;9.154;2023-06-22T12:33:43;28.80;99.90
2024;DHT22;1016;48.770;9.154;2023-06-22T12:36:08;28.90;99.90
2024;DHT22;1016;48.770;9.154;2023-06-22T12:38:34;28.90;99.90
2024;DHT22;1016;48.770;9.154;2023-06-22T12:40:59;28.80;99.90
2024;DHT22;1016;48.770;9.154;2023-06-22T12:43:25;28.80;99.90
2024;DHT22;1016;48.770;9.154;2023-06-22T12:45:50;28.80;99.90
2024;DHT22;1016;48.770;9.154;2023-06-22T12:48:16;28.80;99.90
2024;DHT22;1016;48.770;9.154;2023-06-22T12:50:42;28.80;99.90
2024;DHT22;1016;48.770;9.154;2023-06-22T12:53:07;28.80;99.90
2024;DHT22;1016;48.770;9.154;2023-06-22T12:55:33;28.80;99.90
2024;DHT22;1016;48.770;9.154;2023-06-22T12:57:59;28.90;99.90
2024;DHT22;1016;48.770;9.154;2023-06-22T13:00:24;28.80;99.90
2024;DHT22;1016;48.770;9.154;2023-06-22T13:02:50;28.90;99.90
2024;DHT22;1016;48.770;9.154;2023-06-22T16:21:14;29.40;91.10
2024;DHT22;1016;48.770;9.154;2023-06-22T16:23:40;29.30;91.60
2024;DHT22;1016;48.770;9.154;2023-06-22T16:26:05;29.30;91.30
2024;DHT22;1016;48.770;9.154;2023-06-22T16:28:31;29.30;91.20
2024;DHT22;1016;48.770;9.154;2023-06-22T16:30:56;29.30;91.30
2024;DHT22;1016;48.770;9.154;2023-06-22T16:33:22;29.30;91.40
2024;DHT22;1016;48.770;9.154;2023-06-22T16:35:47;29.30;91.50
2024;DHT22;1016;48.770;9.154;2023-06-22T16:38:13;29.30;91.60
2024;DHT22;1016;48.770;9.154;2023-06-22T16:40:39;29.20;91.80
2024;DHT22;1016;48.770;9.154;2023-06-22T16:43:04;29.20;92.30
2024;DHT22;1016;48.770;9.154;2023-06-22T16:45:30;29.10;91.90
2024;DHT22;1016;48.770;9.154;2023-06-22T16:47:58;29.20;91.80
2024;DHT22;1016;48.770;9.154;2023-06-22T16:50:23;29.20;91.90
2024;DHT22;1016;48.770;9.154;2023-06-22T16:52:49;29.20;92.00
2024;DHT22;1016;48.770;9.154;2023-06-22T16:55:14;29.20;92.30
2024;DHT22;1016;48.770;9.154;2023-06-22T16:57:41;29.20;92.40
2024;DHT22;1016;48.770;9.154;2023-06-22T17:00:07;29.20;92.50
2024;DHT22;1016;48.770;9.154;2023-06-22T17:02:37;29.10;92.50
2024;DHT22;1016;48.770;9.154;2023-06-22T17:05:04;29.10;92.60
2024;DHT22;1016;48.770;9.154;2023-06-22T17:09:59;29.00;92.60
2024;DHT22;1016;48.770;9.154;2023-06-22T17:12:25;29.00;93.00
2024;DHT22;1016;48.770;9.154;2023-06-22T17:14:52;28.90;93.10
2024;DHT22;1016;48.770;9.154;2023-06-22T17:17:17;28.90;92.90
2024;DHT22;1016;48.770;9.154;2023-06-22T17:19:44;28.80;92.80
2024;DHT22;1016;48.770;9.154;2023-06-22T17:24:37;28.80;92.90
2024;DHT22;1016;48.770;9.154;2023-06-22T17:27:03;28.80;93.30
2024;DHT22;1016;48.770;9.154;2023-06-22T17:29:31;28.70;93.40
2024;DHT22;1016;48.770;9.154;2023-06-22T17:31:58;28.70;93.50
2024;DHT22;1016;48.770;9.154;2023-06-22T17:34:26;28.70;93.40
2024;DHT22;1016;48.770;9.154;2023-06-22T17:36:51;28.60;93.40
2024;DHT22;1016;48.770;9.154;2023-06-22T17:39:17;28.50;92.80
2024;DHT22;1016;48.770;9.154;2023-06-22T17:41:43;28.50;92.60
2024;DHT22;1016;48.770;9.154;2023-06-22T17:44:11;28.30;92.80
2024;DHT22;1016;48.770;9.154;2023-06-22T17:46:38;28.30;92.80
2024;DHT22;1016;48.770;9.154;2023-06-22T17:49:07;28.20;92.80
2024;DHT22;1016;48.770;9.154;2023-06-22T17:51:34;28.10;92.70
2024;DHT22;1016;48.770;9.154;2023-06-22T17:54:00;28.00;92.70
2024;DHT22;1016;48.770;9.154;2023-06-22T17:56:26;28.00;92.70
2024;DHT22;1016;48.770;9.154;2023-06-22T17:58:54;27.90;92.90
2024;DHT22;1016;48.770;9.154;2023-06-22T18:03:55;27.70;93.60
2024;DHT22;1016;48.770;9.154;2023-06-22T18:06:21;27.70;93.90
2024;DHT22;1016;48.770;9.154;2023-06-22T18:08:51;27.50;94.10
2024;DHT22;1016;48.770;9.154;2023-06-22T18:11:17;27.40;94.20
2024;DHT22;1016;48.770;9.154;2023-06-22T18:13:42;27.40;94.20
2024;DHT22;1016;48.770;9.154;2023-06-22T18:16:08;27.40;94.30
2024;DHT22;1016;48.770;9.154;2023-06-22T18:18:34;27.30;94.30
2024;DHT22;1016;48.770;9.154;2023-06-22T18:21:00;27.30;94.40
2024;DHT22;1016;48.770;9.154;2023-06-22T18:23:26;27.20;94.60
2024;DHT22;1016;48.770;9.154;2023-06-22T18:25:52;27.20;94.80
2024;DHT22;1016;48.770;9.154;2023-06-22T18:28:17;27.20;94.80
2024;DHT22;1016;48.770;9.154;2023-06-22T18:30:43;27.10;95.00
2024;DHT22;1016;48.770;9.154;2023-06-22T18:33:09;26.90;95.10
2024;DHT22;1016;48.770;9.154;2023-06-22T18:35:36;26.90;95.60
2024;DHT22;1016;48.770;9.154;2023-06-22T18:38:02;26.80;95.80
2024;DHT22;1016;48.770;9.154;2023-06-22T18:40:27;26.80;96.00
2024;DHT22;1016;48.770;9.154;2023-06-22T18:42:56;26.70;96.40
2024;DHT22;1016;48.770;9.154;2023-06-22T18:45:27;26.60;96.50
2024;DHT22;1016;48.770;9.154;2023-06-22T18:48:00;26.50;97.00
2024;DHT22;1016;48.770;9.154;2023-06-22T18:50:42;26.40;97.30
2024;DHT22;1016;48.770;9.154;2023-06-22T18:53:26;26.40;98.20
2024;DHT22;1016;48.770;9.154;2023-06-22T18:56:09;26.30;98.60
2024;DHT22;1016;48.770;9.154;2023-06-22T18:58:35;26.20;98.80
2024;DHT22;1016;48.770;9.154;2023-06-22T19:01:22;26.20;99.20
2024;DHT22;1016;48.770;9.154;2023-06-22T19:03:55;26.10;99.40
2024;DHT22;1016;48.770;9.154;2023-06-22T19:09:25;26.00;99.90
2024;DHT22;1016;48.770;9.154;2023-06-22T19:11:51;25.90;99.90
2024;DHT22;1016;48.770;9.154;2023-06-22T19:14:36;25.80;99.90
2024;DHT22;1016;48.770;9.154;2023-06-22T19:17:02;25.80;99.90
2024;DHT22;1016;48.770;9.154;2023-06-22T19:19:27;25.80;99.90
2024;DHT22;1016;48.770;9.154;2023-06-22T19:21:59;25.80;99.90
2024;DHT22;1016;48.770;9.154;2023-06-22T19:24:32;25.80;99.90
2024;DHT22;1016;48.770;9.154;2023-06-22T19:27:12;25.70;99.90
2024;DHT22;1016;48.770;9.154;2023-06-22T19:29:37;25.70;99.90
2024;DHT22;1016;48.770;9.154;2023-06-22T19:32:04;25.60;99.90
2024;DHT22;1016;48.770;9.154;2023-06-22T19:34:30;25.60;99.90
2024;DHT22;1016;48.770;9.154;2023-06-22T19:36:59;25.60;99.90